Nimmonsburg, New York
Current Conditions -  °F | °C
As of 1:53 AM on Thursday 23 Oct 2014 (Local Time) from KBGM Reporting Station
Overcast Overcast  
Wind Chill: 35°   Ceiling: 900
Heat Index: 43°   Visibility: 10mi
Dew Point: 41°   Wind: 17mph
Humidity: 93%   Direction: 350°N
Pressure: 29.95"   Gusts: NA
Location:  42.1934°N, 75.8849°W
Report Text: KBGM 230553Z AUTO 35015KT 10SM OVC009 06/05 A2995 RMK AO2 CIG 008V012 SLP150 60002 T00610050 10078 20061 56015
Loading
Personal Weather Stations






























Interactive Weather Map
Tropical Storm Tracking
New forecast layout! Learn more

10-Day Weather Forecast

Advertisements
Track Severe Weather on mobile